Time,TemperatureF,DewpointF,PressureIn,WindDirection,WindDirectionDegrees,WindSpeedMPH,WindSpeedGustMPH,Humidity,HourlyPrecipIn,Conditions,Clouds,dailyrainin,SoftwareType,DateUTC
2013-02-16 00:02:00,35.0,25.0,-100.00,South,182,15.0,19.0,68,0.00,,,-99.99,,2013-02-16 07:02:00,
2013-02-16 00:11:00,35.0,25.0,-100.00,SSW,195,13.0,17.0,67,0.00,,,-99.99,,2013-02-16 07:11:00,
2013-02-16 00:21:00,35.0,25.0,-100.00,SSW,195,13.0,17.0,67,0.00,,,-99.99,,2013-02-16 07:21:00,
2013-02-16 00:31:00,35.0,25.0,-100.00,SSW,195,13.0,17.0,67,0.00,,,-99.99,,2013-02-16 07:31:00,
2013-02-16 00:42:00,35.0,25.0,-100.00,South,181,14.0,19.0,67,0.00,,,-99.99,,2013-02-16 07:42:00,
2013-02-16 00:53:00,35.0,25.0,-100.00,South,181,14.0,19.0,67,0.00,,,-99.99,,2013-02-16 07:53:00,
2013-02-16 01:01:00,35.0,25.0,-100.00,South,181,14.0,19.0,67,0.00,,,-99.99,,2013-02-16 08:01:00,
2013-02-16 01:11:00,34.0,25.0,-100.00,South,182,10.0,13.0,67,0.00,,,-99.99,,2013-02-16 08:11:00,
2013-02-16 01:21:00,34.0,25.0,-100.00,South,182,10.0,13.0,67,0.00,,,-99.99,,2013-02-16 08:21:00,
2013-02-16 01:31:00,34.0,25.0,-100.00,South,182,10.0,13.0,67,0.00,,,-99.99,,2013-02-16 08:31:00,
2013-02-16 01:41:00,35.0,25.0,-100.00,South,175,15.0,19.0,68,0.00,,,-99.99,,2013-02-16 08:41:00,
2013-02-16 01:52:00,33.0,25.0,-100.00,South,185,10.0,14.0,71,0.00,,,-99.99,,2013-02-16 08:52:00,
2013-02-16 02:01:00,33.0,25.0,-100.00,South,185,10.0,14.0,71,0.00,,,-99.99,,2013-02-16 09:01:00,
2013-02-16 02:11:00,35.0,25.0,-100.00,South,176,15.0,22.0,68,0.00,,,-99.99,,2013-02-16 09:11:00,
2013-02-16 02:21:00,35.0,25.0,-100.00,South,176,13.0,18.0,68,0.00,,,-99.99,,2013-02-16 09:21:00,
2013-02-16 02:31:00,35.0,25.0,-100.00,South,176,13.0,18.0,68,0.00,,,-99.99,,2013-02-16 09:31:00,
2013-02-16 02:42:00,35.0,25.0,-100.00,South,176,13.0,18.0,68,0.00,,,-99.99,,2013-02-16 09:42:00,
2013-02-16 02:52:00,34.0,25.0,-100.00,South,184,11.0,15.0,69,0.00,,,-99.99,,2013-02-16 09:52:00,
2013-02-16 03:01:00,34.0,25.0,-100.00,South,184,11.0,15.0,69,0.00,,,-99.99,,2013-02-16 10:01:00,
2013-02-16 03:11:00,33.0,25.0,-100.00,SSW,192,13.0,16.0,71,0.00,,,-99.99,,2013-02-16 10:11:00,
2013-02-16 03:21:00,33.0,25.0,-100.00,SSW,192,13.0,16.0,71,0.00,,,-99.99,,2013-02-16 10:21:00,
2013-02-16 03:31:00,33.0,25.0,-100.00,SSW,192,13.0,16.0,71,0.00,,,-99.99,,2013-02-16 10:31:00,
2013-02-16 03:41:00,34.0,25.0,-100.00,South,188,13.0,18.0,71,0.00,,,-99.99,,2013-02-16 10:41:00,
2013-02-16 03:52:00,33.0,25.0,-100.00,South,191,15.0,18.0,72,0.00,,,-99.99,,2013-02-16 10:52:00,
2013-02-16 04:02:00,33.0,25.0,-100.00,South,191,15.0,18.0,72,0.00,,,-99.99,,2013-02-16 11:02:00,
2013-02-16 04:11:00,33.0,25.0,-100.00,South,191,15.0,18.0,72,0.00,,,-99.99,,2013-02-16 11:11:00,
2013-02-16 04:22:00,34.0,26.0,-100.00,South,174,17.0,22.0,70,0.00,,,-99.99,,2013-02-16 11:22:00,
2013-02-16 04:31:00,34.0,26.0,-100.00,South,174,17.0,22.0,70,0.00,,,-99.99,,2013-02-16 11:31:00,
2013-02-16 04:42:00,35.0,26.0,-100.00,South,184,17.0,21.0,69,0.00,,,-99.99,,2013-02-16 11:42:00,
2013-02-16 04:52:00,35.0,26.0,-100.00,South,184,17.0,21.0,69,0.00,,,-99.99,,2013-02-16 11:52:00,
2013-02-16 05:01:00,35.0,26.0,-100.00,South,184,17.0,21.0,69,0.00,,,-99.99,,2013-02-16 12:01:00,
2013-02-16 05:12:00,35.0,26.0,-100.00,South,178,16.0,21.0,69,0.00,,,-99.99,,2013-02-16 12:12:00,
2013-02-16 05:22:00,35.0,26.0,-100.00,South,179,21.0,26.0,69,0.00,,,-99.99,,2013-02-16 12:22:00,
2013-02-16 05:32:00,35.0,26.0,-100.00,South,179,21.0,26.0,69,0.00,,,-99.99,,2013-02-16 12:32:00,
2013-02-16 05:42:00,34.0,26.0,-100.00,South,178,16.0,20.0,70,0.00,,,-99.99,,2013-02-16 12:42:00,
2013-02-16 05:52:00,34.0,26.0,-100.00,South,178,16.0,20.0,70,0.00,,,-99.99,,2013-02-16 12:52:00,
2013-02-16 06:01:00,34.0,26.0,-100.00,South,178,16.0,20.0,70,0.00,,,-99.99,,2013-02-16 13:01:00,
2013-02-16 06:11:00,34.0,26.0,-100.00,South,185,19.0,25.0,70,0.00,,,-99.99,,2013-02-16 13:11:00,
2013-02-16 06:21:00,34.0,26.0,-100.00,South,185,19.0,25.0,70,0.00,,,-99.99,,2013-02-16 13:21:00,
2013-02-16 06:31:00,34.0,26.0,-100.00,South,185,19.0,25.0,70,0.00,,,-99.99,,2013-02-16 13:31:00,
2013-02-16 06:41:00,34.0,26.0,-100.00,South,178,16.0,22.0,70,0.00,,,-99.99,,2013-02-16 13:41:00,
2013-02-16 06:51:00,34.0,26.0,-100.00,South,181,15.0,19.0,71,0.00,,,-99.99,,2013-02-16 13:51:00,
2013-02-16 07:01:00,34.0,26.0,-100.00,South,181,15.0,19.0,71,0.00,,,-99.99,,2013-02-16 14:01:00,
2013-02-16 07:11:00,35.0,26.0,-100.00,South,188,19.0,23.0,69,0.00,,,-99.99,,2013-02-16 14:11:00,
2013-02-16 07:21:00,34.0,25.0,-100.00,South,191,14.0,17.0,70,0.00,,,-99.99,,2013-02-16 14:21:00,
2013-02-16 07:32:00,34.0,25.0,-100.00,South,191,14.0,17.0,70,0.00,,,-99.99,,2013-02-16 14:32:00,
2013-02-16 07:42:00,34.0,25.0,-100.00,South,191,14.0,17.0,70,0.00,,,-99.99,,2013-02-16 14:42:00,
2013-02-16 07:52:00,35.0,25.0,-100.00,South,186,13.0,18.0,69,0.00,,,-99.99,,2013-02-16 14:52:00,
2013-02-16 08:01:00,35.0,25.0,-100.00,South,186,13.0,18.0,69,0.00,,,-99.99,,2013-02-16 15:01:00,
2013-02-16 08:11:00,35.0,25.0,-100.00,SSW,192,15.0,19.0,68,0.00,,,-99.99,,2013-02-16 15:11:00,
2013-02-16 08:21:00,35.0,25.0,-100.00,SSW,192,15.0,19.0,68,0.00,,,-99.99,,2013-02-16 15:21:00,
2013-02-16 08:41:00,34.0,25.0,-100.00,South,189,12.0,17.0,69,0.00,,,-99.99,,2013-02-16 15:41:00,
2013-02-16 08:52:00,34.0,25.0,-100.00,South,189,12.0,17.0,69,0.00,,,-99.99,,2013-02-16 15:52:00,
2013-02-16 09:01:00,34.0,25.0,-100.00,South,189,12.0,17.0,69,0.00,,,-99.99,,2013-02-16 16:01:00,
2013-02-16 09:11:00,35.0,25.0,-100.00,SSW,192,14.0,19.0,65,0.00,,,-99.99,,2013-02-16 16:11:00,
2013-02-16 09:41:00,36.0,25.0,-100.00,South,191,14.0,17.0,64,0.00,,,-99.99,,2013-02-16 16:41:00,
2013-02-16 09:52:00,37.0,25.0,-100.00,SSW,198,12.0,17.0,62,0.00,,,-99.99,,2013-02-16 16:52:00,
2013-02-16 10:01:00,37.0,25.0,-100.00,SSW,198,12.0,17.0,62,0.00,,,-99.99,,2013-02-16 17:01:00,
2013-02-16 10:11:00,38.0,25.0,-100.00,SSW,213,7.0,11.0,61,0.00,,,-99.99,,2013-02-16 17:11:00,
2013-02-16 10:21:00,38.0,25.0,-100.00,SSW,213,7.0,11.0,61,0.00,,,-99.99,,2013-02-16 17:21:00,
2013-02-16 10:41:00,38.0,25.0,-100.00,SSW,212,13.0,16.0,60,0.00,,,-99.99,,2013-02-16 17:41:00,
2013-02-16 10:52:00,38.0,25.0,-100.00,SSW,212,13.0,16.0,60,0.00,,,-99.99,,2013-02-16 17:52:00,
2013-02-16 11:01:00,38.0,25.0,-100.00,SSW,212,13.0,16.0,60,0.00,,,-99.99,,2013-02-16 18:01:00,
2013-02-16 11:11:00,40.0,25.0,-100.00,SSW,202,12.0,15.0,56,0.00,,,-99.99,,2013-02-16 18:11:00,
2013-02-16 11:21:00,41.0,26.0,-100.00,South,182,14.0,20.0,55,0.00,,,-99.99,,2013-02-16 18:21:00,
2013-02-16 11:32:00,41.0,26.0,-100.00,South,182,14.0,20.0,55,0.00,,,-99.99,,2013-02-16 18:32:00,
2013-02-16 11:42:00,41.0,26.0,-100.00,SSW,200,13.0,21.0,53,0.00,,,-99.99,,2013-02-16 18:42:00,
2013-02-16 11:52:00,42.0,26.0,-100.00,SSW,199,15.0,17.0,53,0.00,,,-99.99,,2013-02-16 18:52:00,
2013-02-16 12:02:00,42.0,26.0,-100.00,SSW,199,15.0,17.0,53,0.00,,,-99.99,,2013-02-16 19:02:00,
2013-02-16 12:11:00,42.0,26.0,-100.00,SSW,199,15.0,17.0,53,0.00,,,-99.99,,2013-02-16 19:11:00,
2013-02-16 12:21:00,44.0,26.0,-100.00,SSW,196,12.0,17.0,51,0.00,,,-99.99,,2013-02-16 19:21:00,
2013-02-16 12:31:00,44.0,26.0,-100.00,SSW,196,12.0,17.0,51,0.00,,,-99.99,,2013-02-16 19:31:00,
2013-02-16 12:42:00,44.0,26.0,-100.00,SSW,196,12.0,17.0,51,0.00,,,-99.99,,2013-02-16 19:42:00,
2013-02-16 12:52:00,44.0,26.0,-100.00,South,181,13.0,17.0,49,0.00,,,-99.99,,2013-02-16 19:52:00,
2013-02-16 13:01:00,44.0,26.0,-100.00,South,181,13.0,17.0,49,0.00,,,-99.99,,2013-02-16 20:01:00,
2013-02-16 13:11:00,44.0,26.0,-100.00,South,182,14.0,19.0,50,0.00,,,-99.99,,2013-02-16 20:11:00,
2013-02-16 13:21:00,44.0,26.0,-100.00,South,182,14.0,19.0,50,0.00,,,-99.99,,2013-02-16 20:21:00,
2013-02-16 13:32:00,44.0,26.0,-100.00,South,182,14.0,19.0,50,0.00,,,-99.99,,2013-02-16 20:32:00,
2013-02-16 13:42:00,44.0,27.0,-100.00,South,181,13.0,18.0,50,0.00,,,-99.99,,2013-02-16 20:42:00,
2013-02-16 13:52:00,44.0,27.0,-100.00,South,181,13.0,18.0,50,0.00,,,-99.99,,2013-02-16 20:52:00,
2013-02-16 14:02:00,44.0,27.0,-100.00,South,181,13.0,18.0,50,0.00,,,-99.99,,2013-02-16 21:02:00,
2013-02-16 14:11:00,45.0,27.0,-100.00,South,179,14.0,17.0,49,0.00,,,-99.99,,2013-02-16 21:11:00,
2013-02-16 14:21:00,45.0,27.0,-100.00,South,179,14.0,17.0,49,0.00,,,-99.99,,2013-02-16 21:21:00,
2013-02-16 14:31:00,45.0,27.0,-100.00,South,179,14.0,17.0,49,0.00,,,-99.99,,2013-02-16 21:31:00,
2013-02-16 14:41:00,45.0,27.0,-100.00,South,191,12.0,17.0,48,0.00,,,-99.99,,2013-02-16 21:41:00,
2013-02-16 14:52:00,45.0,28.0,-100.00,SSW,199,13.0,18.0,51,0.00,,,-99.99,,2013-02-16 21:52:00,
2013-02-16 15:01:00,45.0,28.0,-100.00,SSW,199,13.0,18.0,51,0.00,,,-99.99,,2013-02-16 22:01:00,
2013-02-16 15:11:00,45.0,27.0,-100.00,SSW,202,13.0,15.0,49,0.00,,,-99.99,,2013-02-16 22:11:00,
2013-02-16 15:21:00,45.0,27.0,-100.00,South,188,13.0,20.0,50,0.00,,,-99.99,,2013-02-16 22:21:00,
2013-02-16 15:32:00,45.0,27.0,-100.00,South,188,13.0,20.0,50,0.00,,,-99.99,,2013-02-16 22:32:00,
2013-02-16 15:42:00,45.0,27.0,-100.00,South,181,12.0,17.0,49,0.00,,,-99.99,,2013-02-16 22:42:00,
2013-02-16 15:52:00,45.0,27.0,-100.00,SSW,192,15.0,18.0,48,0.00,,,-99.99,,2013-02-16 22:52:00,
2013-02-16 16:02:00,45.0,27.0,-100.00,SSW,192,15.0,18.0,48,0.00,,,-99.99,,2013-02-16 23:02:00,
2013-02-16 16:11:00,45.0,27.0,-100.00,SSW,193,15.0,18.0,49,0.00,,,-99.99,,2013-02-16 23:11:00,
2013-02-16 16:21:00,45.0,27.0,-100.00,SSW,193,15.0,18.0,49,0.00,,,-99.99,,2013-02-16 23:21:00,
2013-02-16 16:31:00,45.0,27.0,-100.00,SSW,193,15.0,18.0,49,0.00,,,-99.99,,2013-02-16 23:31:00,
2013-02-16 16:42:00,44.0,27.0,-100.00,South,179,13.0,17.0,51,0.00,,,-99.99,,2013-02-16 23:42:00,
2013-02-16 16:52:00,44.0,27.0,-100.00,South,179,13.0,17.0,51,0.00,,,-99.99,,2013-02-16 23:52:00,
2013-02-16 17:02:00,44.0,27.0,-100.00,South,179,13.0,17.0,51,0.00,,,-99.99,,2013-02-17 00:02:00,
2013-02-16 17:11:00,44.0,27.0,-100.00,South,178,13.0,16.0,50,0.00,,,-99.99,,2013-02-17 00:11:00,
2013-02-16 17:21:00,44.0,27.0,-100.00,South,178,13.0,16.0,50,0.00,,,-99.99,,2013-02-17 00:21:00,
2013-02-16 17:31:00,44.0,27.0,-100.00,South,178,13.0,16.0,50,0.00,,,-99.99,,2013-02-17 00:31:00,
2013-02-16 17:41:00,42.0,26.0,-100.00,SSW,195,18.0,22.0,52,0.00,,,-99.99,,2013-02-17 00:41:00,
2013-02-16 17:52:00,42.0,26.0,-100.00,South,179,13.0,18.0,53,0.00,,,-99.99,,2013-02-17 00:52:00,
2013-02-16 18:01:00,42.0,26.0,-100.00,South,179,13.0,18.0,53,0.00,,,-99.99,,2013-02-17 01:01:00,
2013-02-16 18:11:00,41.0,26.0,-100.00,SSW,192,13.0,16.0,54,0.00,,,-99.99,,2013-02-17 01:11:00,
2013-02-16 18:21:00,41.0,26.0,-100.00,South,182,14.0,21.0,55,0.00,,,-99.99,,2013-02-17 01:21:00,
2013-02-16 18:31:00,41.0,26.0,-100.00,South,182,14.0,21.0,55,0.00,,,-99.99,,2013-02-17 01:31:00,
2013-02-16 18:41:00,41.0,26.0,-100.00,South,182,14.0,21.0,55,0.00,,,-99.99,,2013-02-17 01:41:00,
2013-02-16 18:52:00,40.0,26.0,-100.00,South,175,12.0,17.0,55,0.00,,,-99.99,,2013-02-17 01:52:00,
2013-02-16 19:01:00,40.0,26.0,-100.00,South,175,12.0,17.0,55,0.00,,,-99.99,,2013-02-17 02:01:00,
2013-02-16 19:11:00,40.0,25.0,-100.00,SSW,193,8.0,12.0,55,0.00,,,-99.99,,2013-02-17 02:11:00,
2013-02-16 19:21:00,41.0,25.0,-100.00,South,185,14.0,20.0,53,0.00,,,-99.99,,2013-02-17 02:21:00,
2013-02-16 19:31:00,41.0,25.0,-100.00,South,185,14.0,20.0,53,0.00,,,-99.99,,2013-02-17 02:31:00,
2013-02-16 19:41:00,40.0,25.0,-100.00,South,182,15.0,23.0,55,0.00,,,-99.99,,2013-02-17 02:41:00,
2013-02-16 19:52:00,40.0,25.0,-100.00,South,191,16.0,23.0,54,0.00,,,-99.99,,2013-02-17 02:52:00,
2013-02-16 20:01:00,40.0,25.0,-100.00,South,191,16.0,23.0,54,0.00,,,-99.99,,2013-02-17 03:01:00,
2013-02-16 20:11:00,40.0,25.0,-100.00,South,191,16.0,23.0,54,0.00,,,-99.99,,2013-02-17 03:11:00,
2013-02-16 20:21:00,40.0,25.0,-100.00,South,191,13.0,17.0,55,0.00,,,-99.99,,2013-02-17 03:21:00,
2013-02-16 20:31:00,40.0,25.0,-100.00,South,191,13.0,17.0,55,0.00,,,-99.99,,2013-02-17 03:31:00,
2013-02-16 20:42:00,39.0,24.0,-100.00,South,181,13.0,15.0,55,0.00,,,-99.99,,2013-02-17 03:42:00,
2013-02-16 20:52:00,39.0,24.0,-100.00,South,181,13.0,15.0,55,0.00,,,-99.99,,2013-02-17 03:52:00,
2013-02-16 21:01:00,39.0,24.0,-100.00,South,181,13.0,15.0,55,0.00,,,-99.99,,2013-02-17 04:01:00,
2013-02-16 21:11:00,40.0,23.0,-100.00,South,184,16.0,21.0,52,0.00,,,-99.99,,2013-02-17 04:11:00,
2013-02-16 21:21:00,40.0,23.0,-100.00,South,184,16.0,21.0,52,0.00,,,-99.99,,2013-02-17 04:21:00,
2013-02-16 21:41:00,39.0,23.0,-100.00,South,181,17.0,24.0,51,0.00,,,-99.99,,2013-02-17 04:41:00,
2013-02-16 21:52:00,39.0,23.0,-100.00,South,181,17.0,24.0,51,0.00,,,-99.99,,2013-02-17 04:52:00,
2013-02-16 22:01:00,39.0,23.0,-100.00,South,181,17.0,24.0,51,0.00,,,-99.99,,2013-02-17 05:01:00,
2013-02-16 22:11:00,40.0,22.0,-100.00,South,185,18.0,23.0,49,0.00,,,-99.99,,2013-02-17 05:11:00,
2013-02-16 22:22:00,40.0,22.0,-100.00,SSW,193,14.0,18.0,49,0.00,,,-99.99,,2013-02-17 05:22:00,
2013-02-16 22:32:00,40.0,22.0,-100.00,SSW,193,14.0,18.0,49,0.00,,,-99.99,,2013-02-17 05:32:00,
2013-02-16 22:42:00,40.0,22.0,-100.00,SSW,193,14.0,18.0,49,0.00,,,-99.99,,2013-02-17 05:42:00,
2013-02-16 22:52:00,40.0,22.0,-100.00,SSW,199,17.0,21.0,50,0.00,,,-99.99,,2013-02-17 05:52:00,
2013-02-16 23:01:00,40.0,22.0,-100.00,SSW,199,17.0,21.0,50,0.00,,,-99.99,,2013-02-17 06:01:00,
2013-02-16 23:11:00,41.0,21.0,-100.00,South,189,15.0,23.0,45,0.00,,,-99.99,,2013-02-17 06:11:00,
2013-02-16 23:21:00,41.0,21.0,-100.00,South,189,15.0,23.0,45,0.00,,,-99.99,,2013-02-17 06:21:00,
2013-02-16 23:41:00,41.0,20.0,-100.00,SSW,193,17.0,22.0,44,0.00,,,-99.99,,2013-02-17 06:41:00,
2013-02-16 23:52:00,41.0,20.0,-100.00,South,191,16.0,21.0,44,0.00,,,-99.99,,2013-02-17 06:52:00,